Time;durP1;ratioP1;P1;durP2;ratioP2;P2;SDS_P1;SDS_P2;PMS_P1;PMS_P2;Temp;Humidity;BMP_temperature;BMP_pressure;BME280_temperature;BME280_humidity;BME280_pressure;Samples;Min_cycle;Max_cycle;Signal;HPM_P1;HPM_P2
2022/03/30 00:01:26;;;;;;;70.55;41.90;;;8.40;99.90;;;;;;4922024;28;20074;-67
2022/03/30 00:03:53;;;;;;;61.78;39.67;;;8.30;99.90;;;;;;4930188;29;20074;-66
2022/03/30 00:06:20;;;;;;;65.75;37.10;;;8.30;99.90;;;;;;4943612;29;20051;-66
2022/03/30 00:08:47;;;;;;;61.20;40.35;;;8.40;99.90;;;;;;4949254;29;20055;-65
2022/03/30 00:11:14;;;;;;;68.70;42.10;;;8.40;99.90;;;;;;4947069;29;20096;-65
2022/03/30 00:13:41;;;;;;;67.65;40.17;;;8.50;99.90;;;;;;4949710;29;20047;-65
2022/03/30 00:16:09;;;;;;;67.50;44.47;;;8.40;99.90;;;;;;4929531;29;20055;-66
2022/03/30 00:18:37;;;;;;;64.43;40.17;;;8.40;99.90;;;;;;4937791;29;20071;-65
2022/03/30 00:21:04;;;;;;;67.35;41.90;;;8.50;99.90;;;;;;4932328;29;20058;-65
2022/03/30 00:23:31;;;;;;;69.43;44.00;;;8.40;99.90;;;;;;4926641;29;20056;-65
2022/03/30 00:25:58;;;;;;;69.03;43.10;;;8.40;99.90;;;;;;4935531;29;20081;-65
2022/03/30 00:28:27;;;;;;;71.90;44.67;;;8.40;99.90;;;;;;4950667;28;20051;-65
2022/03/30 00:30:55;;;;;;;72.57;43.58;;;8.50;99.90;;;;;;4952816;28;20062;-65
2022/03/30 00:33:22;;;;;;;70.28;41.67;;;8.50;99.90;;;;;;4940325;29;20495;-65
2022/03/30 00:35:49;;;;;;;78.00;45.97;;;8.40;99.90;;;;;;4941077;29;20058;-65
2022/03/30 00:38:16;;;;;;;76.13;45.25;;;8.40;99.90;;;;;;4940646;29;20492;-65
2022/03/30 00:40:43;;;;;;;74.35;45.65;;;8.50;99.90;;;;;;4966810;28;20044;-65
2022/03/30 00:43:10;;;;;;;81.35;47.08;;;8.50;99.90;;;;;;4950596;29;20055;-65
2022/03/30 00:45:37;;;;;;;77.85;48.08;;;8.40;99.90;;;;;;4933019;29;20063;-66
2022/03/30 00:48:05;;;;;;;81.00;45.92;;;8.40;99.90;;;;;;4922618;29;20098;-65
2022/03/30 00:50:31;;;;;;;75.72;46.67;;;8.50;99.90;;;;;;4943765;28;20376;-65
2022/03/30 00:52:58;;;;;;;74.93;46.55;;;8.40;99.90;;;;;;4961777;28;20052;-65
2022/03/30 00:55:25;;;;;;;78.10;45.20;;;8.40;99.90;;;;;;4947235;29;20399;-66
2022/03/30 00:57:53;;;;;;;76.68;45.85;;;8.40;99.90;;;;;;4954912;29;20137;-65
2022/03/30 01:00:20;;;;;;;76.43;45.85;;;8.40;99.90;;;;;;4928659;29;20063;-65
2022/03/30 01:02:48;;;;;;;81.45;46.20;;;8.40;99.90;;;;;;4944481;28;20047;-65
2022/03/30 01:05:16;;;;;;;77.03;47.85;;;8.30;99.90;;;;;;4940892;29;20077;-67
2022/03/30 01:07:43;;;;;;;79.88;46.10;;;8.40;99.90;;;;;;4922627;29;20135;-65
2022/03/30 01:10:11;;;;;;;81.18;49.88;;;8.30;99.90;;;;;;4946549;28;20062;-64
2022/03/30 01:12:41;;;;;;;77.47;46.50;;;8.30;99.90;;;;;;4959869;28;20056;-66
2022/03/30 01:15:09;;;;;;;83.03;47.35;;;8.20;99.90;;;;;;4938115;29;20047;-66
2022/03/30 01:17:37;;;;;;;74.75;46.33;;;8.20;99.90;;;;;;4955081;28;20154;-66
2022/03/30 01:20:08;;;;;;;75.40;44.28;;;8.20;99.90;;;;;;4955082;28;20043;-65
2022/03/30 01:22:35;;;;;;;77.53;44.58;;;8.10;99.90;;;;;;4944660;29;20184;-67
2022/03/30 01:25:02;;;;;;;72.90;43.30;;;8.10;99.90;;;;;;4964455;28;20064;-65
2022/03/30 01:27:29;;;;;;;75.47;48.70;;;8.10;99.90;;;;;;4969060;28;20055;-65
2022/03/30 01:32:41;;;;;;;77.55;44.67;;;8.00;99.90;;;;;;4946395;29;20056;-65
2022/03/30 01:35:10;;;;;;;73.15;47.00;;;8.00;99.90;;;;;;4953057;29;20051;-65
2022/03/30 01:37:37;;;;;;;76.97;45.13;;;8.00;99.90;;;;;;4944232;28;20082;-66
2022/03/30 01:40:05;;;;;;;75.57;45.38;;;8.00;99.90;;;;;;4947128;29;20043;-65
2022/03/30 01:42:32;;;;;;;79.18;46.50;;;7.90;99.90;;;;;;4952587;28;20043;-65
2022/03/30 01:44:59;;;;;;;74.22;43.88;;;7.90;99.90;;;;;;4951408;29;20047;-65
2022/03/30 01:47:26;;;;;;;76.10;45.58;;;7.90;99.90;;;;;;4966400;28;20079;-65
2022/03/30 01:49:53;;;;;;;72.72;44.90;;;7.90;99.90;;;;;;4950288;29;20050;-66
2022/03/30 01:52:20;;;;;;;89.95;44.78;;;7.90;99.90;;;;;;4939896;28;20083;-65
2022/03/30 01:54:46;;;;;;;77.13;45.05;;;7.80;99.90;;;;;;4953084;29;20059;-65
2022/03/30 01:57:13;;;;;;;76.40;44.97;;;7.80;99.90;;;;;;4944244;29;20059;-66
2022/03/30 01:59:42;;;;;;;71.85;43.88;;;7.70;99.90;;;;;;4941656;29;20047;-66
2022/03/30 02:02:09;;;;;;;74.03;43.83;;;7.70;99.90;;;;;;4949427;29;20047;-65
2022/03/30 02:04:39;;;;;;;77.60;43.88;;;7.80;99.90;;;;;;4964749;28;20059;-65
2022/03/30 02:07:09;;;;;;;68.72;42.05;;;7.80;99.90;;;;;;4949722;29;20054;-65
2022/03/30 02:09:36;;;;;;;;;;;7.70;99.90;;;;;;4950154;29;20051;-66
2022/03/30 02:12:04;;;;;;;71.15;40.72;;;7.70;99.90;;;;;;4948298;29;20371;-65
2022/03/30 02:14:31;;;;;;;65.75;41.63;;;7.70;99.90;;;;;;4935011;29;20085;-65
2022/03/30 02:16:58;;;;;;;68.60;41.80;;;7.70;99.90;;;;;;4949807;29;20059;-65
2022/03/30 02:19:25;;;;;;;72.70;43.08;;;7.70;99.90;;;;;;4933299;29;20479;-66
2022/03/30 02:21:52;;;;;;;66.68;40.83;;;7.70;99.90;;;;;;4950633;28;20501;-65
2022/03/30 02:24:20;;;;;;;72.60;42.88;;;7.60;99.90;;;;;;4943691;29;20461;-66
2022/03/30 02:26:47;;;;;;;75.55;42.97;;;7.70;99.90;;;;;;4943028;29;20170;-66
2022/03/30 02:29:16;;;;;;;75.90;44.13;;;7.70;99.90;;;;;;4949609;29;20389;-66
2022/03/30 02:31:44;;;;;;;66.45;42.92;;;7.60;99.90;;;;;;4939015;29;20055;-66
2022/03/30 02:34:11;;;;;;;76.38;40.72;;;7.70;99.90;;;;;;4944265;29;20075;-66
2022/03/30 02:36:39;;;;;;;70.90;42.00;;;7.60;99.90;;;;;;4942272;29;20061;-66
2022/03/30 02:39:06;;;;;;;74.55;43.15;;;7.60;99.90;;;;;;4920682;29;20499;-66
2022/03/30 02:41:32;;;;;;;69.10;39.42;;;7.70;99.90;;;;;;4945291;29;20043;-66
2022/03/30 02:44:00;;;;;;;68.47;41.05;;;7.70;99.90;;;;;;4942289;29;20389;-66
2022/03/30 02:46:27;;;;;;;78.60;46.13;;;7.70;99.90;;;;;;4944848;28;20055;-67
2022/03/30 02:48:54;;;;;;;76.03;43.38;;;7.70;99.90;;;;;;4944583;29;20055;-66
2022/03/30 02:51:21;;;;;;;73.00;43.85;;;7.70;99.90;;;;;;4938086;29;20520;-66
2022/03/30 02:53:48;;;;;;;76.72;44.65;;;7.70;99.90;;;;;;4933490;29;20055;-66
2022/03/30 02:56:16;;;;;;;69.38;41.53;;;7.70;99.90;;;;;;4932742;29;20062;-66
2022/03/30 02:58:43;;;;;;;75.75;43.78;;;7.70;99.90;;;;;;4943938;29;20687;-65
2022/03/30 03:01:10;;;;;;;74.88;41.83;;;7.70;99.90;;;;;;4951524;28;20102;-66
2022/03/30 03:03:46;;;;;;;84.15;43.83;;;7.70;99.90;;;;;;4952361;28;20055;-66
2022/03/30 03:06:13;;;;;;;78.43;45.58;;;7.70;99.90;;;;;;4962725;28;20449;-65
2022/03/30 03:08:40;;;;;;;72.97;43.42;;;7.70;99.90;;;;;;4941985;29;20055;-66
2022/03/30 03:11:07;;;;;;;76.78;45.58;;;7.70;99.90;;;;;;4943855;29;20101;-66
2022/03/30 03:13:34;;;;;;;70.65;41.92;;;7.70;99.90;;;;;;4945268;29;20391;-66
2022/03/30 03:16:01;;;;;;;77.30;42.40;;;7.70;99.90;;;;;;4935653;29;20404;-66
2022/03/30 03:18:28;;;;;;;72.82;42.53;;;7.70;99.90;;;;;;4965100;28;20095;-66
2022/03/30 03:20:55;;;;;;;82.85;41.25;;;7.70;99.90;;;;;;4953480;28;20054;-66
2022/03/30 03:23:22;;;;;;;72.38;43.95;;;7.70;99.90;;;;;;4950796;28;20055;-66
2022/03/30 03:25:49;;;;;;;79.60;43.33;;;7.70;99.90;;;;;;4941912;29;20051;-66
2022/03/30 03:28:16;;;;;;;70.35;41.25;;;7.70;99.90;;;;;;4949857;28;20050;-66
2022/03/30 03:30:42;;;;;;;74.28;45.83;;;7.70;99.90;;;;;;4948546;28;20058;-66
2022/03/30 03:33:10;;;;;;;72.65;42.22;;;7.60;99.90;;;;;;4952806;28;20043;-66
2022/03/30 03:35:38;;;;;;;77.30;42.30;;;7.70;99.90;;;;;;4931507;29;20066;-66
2022/03/30 03:38:05;;;;;;;77.15;45.05;;;7.60;99.90;;;;;;4941970;29;20134;-66
2022/03/30 03:40:32;;;;;;;72.13;41.67;;;7.60;99.90;;;;;;4965838;28;20048;-66
2022/03/30 03:42:59;;;;;;;74.05;41.22;;;7.70;99.90;;;;;;4952350;28;20051;-66
2022/03/30 03:45:27;;;;;;;72.00;40.67;;;7.70;99.90;;;;;;4938731;28;20055;-67
2022/03/30 03:47:54;;;;;;;78.25;42.65;;;7.70;99.90;;;;;;4951933;28;20047;-66
2022/03/30 03:50:22;;;;;;;62.97;38.75;;;7.70;99.90;;;;;;4950066;29;20054;-67
2022/03/30 03:52:49;;;;;;;75.60;40.63;;;7.70;99.90;;;;;;4967680;28;20051;-66
2022/03/30 03:55:20;;;;;;;67.22;38.85;;;7.70;99.90;;;;;;4949014;29;20086;-66
2022/03/30 03:57:47;;;;;;;72.32;41.85;;;7.70;99.90;;;;;;4952110;28;20522;-66
2022/03/30 04:00:14;;;;;;;69.13;39.58;;;7.70;99.90;;;;;;4952464;28;20126;-66
2022/03/30 04:02:41;;;;;;;68.20;40.90;;;7.60;99.90;;;;;;4942365;29;20051;-67
2022/03/30 04:05:09;;;;;;;62.42;37.10;;;7.60;99.90;;;;;;4941641;29;20058;-67
2022/03/30 04:07:38;;;;;;;70.75;38.17;;;7.70;99.90;;;;;;4956146;29;20051;-66
2022/03/30 04:10:09;;;;;;;66.28;38.13;;;7.70;99.90;;;;;;4958079;28;20062;-67
2022/03/30 04:12:36;;;;;;;64.15;38.05;;;7.70;99.90;;;;;;4956045;29;20043;-67
2022/03/30 04:15:04;;;;;;;56.92;37.35;;;7.70;99.90;;;;;;4956786;28;20055;-67
2022/03/30 04:17:32;;;;;;;68.05;38.17;;;7.70;99.90;;;;;;4926260;29;20103;-66
2022/03/30 04:20:00;;;;;;;64.53;38.47;;;7.80;99.90;;;;;;4955058;29;20419;-66
2022/03/30 04:22:27;;;;;;;63.67;37.17;;;7.80;99.90;;;;;;4942185;29;20140;-67
2022/03/30 04:24:54;;;;;;;58.15;37.15;;;7.80;99.90;;;;;;4970923;28;20086;-66
2022/03/30 04:27:21;;;;;;;57.15;35.47;;;7.80;99.90;;;;;;4923398;29;20059;-66
2022/03/30 04:29:48;;;;;;;57.05;35.83;;;7.90;99.90;;;;;;4940325;29;20048;-66
2022/03/30 04:32:16;;;;;;;73.68;37.75;;;7.90;99.90;;;;;;4950445;29;20051;-67
2022/03/30 04:34:43;;;;;;;60.55;37.28;;;7.90;99.90;;;;;;4945251;29;20062;-66
2022/03/30 04:37:16;;;;;;;64.20;37.97;;;7.80;99.90;;;;;;4944077;29;20150;-67
2022/03/30 04:39:43;;;;;;;56.90;34.67;;;7.80;99.90;;;;;;4946878;28;20059;-66
2022/03/30 04:42:10;;;;;;;60.55;36.55;;;7.80;99.90;;;;;;4944591;29;20054;-66
2022/03/30 04:44:37;;;;;;;64.05;37.15;;;7.70;99.90;;;;;;4947644;29;20056;-67
2022/03/30 04:47:04;;;;;;;56.70;33.53;;;7.70;99.90;;;;;;4935807;29;20062;-66
2022/03/30 04:49:30;;;;;;;56.90;36.17;;;7.80;99.90;;;;;;4971321;28;20078;-67
2022/03/30 04:51:57;;;;;;;54.78;34.40;;;7.80;99.90;;;;;;4954072;28;20039;-67
2022/03/30 04:54:24;;;;;;;58.45;33.75;;;7.80;99.90;;;;;;4954436;28;20047;-66
2022/03/30 04:56:51;;;;;;;54.92;31.98;;;7.80;99.90;;;;;;4942154;29;20058;-67
2022/03/30 04:59:19;;;;;;;55.30;33.15;;;7.80;99.90;;;;;;4954470;29;20059;-66
2022/03/30 05:01:45;;;;;;;56.75;35.65;;;7.80;99.90;;;;;;4945116;29;20110;-66
2022/03/30 05:04:12;;;;;;;49.85;31.48;;;7.80;99.90;;;;;;4938903;29;20055;-65
2022/03/30 05:06:39;;;;;;;57.53;34.10;;;7.80;99.90;;;;;;4954160;29;20047;-66
2022/03/30 05:09:06;;;;;;;49.97;32.00;;;7.80;99.90;;;;;;4951951;29;20051;-67
2022/03/30 05:11:33;;;;;;;54.45;31.08;;;7.80;99.90;;;;;;4968297;28;20082;-66
2022/03/30 05:14:00;;;;;;;66.15;34.22;;;7.90;99.90;;;;;;4952291;29;20443;-65
2022/03/30 05:16:27;;;;;;;55.38;31.50;;;7.90;99.90;;;;;;4964929;28;20054;-67
2022/03/30 05:18:54;;;;;;;54.88;31.25;;;7.90;99.90;;;;;;4945822;29;20114;-65
2022/03/30 05:21:21;;;;;;;49.60;31.17;;;7.90;99.90;;;;;;4940476;29;20071;-66
2022/03/30 05:23:48;;;;;;;64.65;35.92;;;7.90;99.90;;;;;;4934805;29;20135;-66
2022/03/30 05:26:15;;;;;;;51.63;33.85;;;8.00;99.90;;;;;;4954434;28;20051;-66
2022/03/30 05:28:42;;;;;;;57.33;37.10;;;7.90;99.90;;;;;;4938365;29;20051;-66
2022/03/30 05:31:12;;;;;;;61.35;35.72;;;7.90;99.90;;;;;;4949039;29;21438;-66
2022/03/30 05:33:39;;;;;;;66.93;33.88;;;7.80;99.90;;;;;;4956167;28;20051;-66
2022/03/30 05:36:07;;;;;;;64.30;36.92;;;7.80;99.90;;;;;;4941736;29;20051;-66
2022/03/30 05:38:34;;;;;;;64.55;38.17;;;7.80;99.90;;;;;;4955542;28;20047;-66
2022/03/30 05:41:02;;;;;;;57.72;37.15;;;7.70;99.90;;;;;;4949159;28;20059;-66
2022/03/30 05:43:29;;;;;;;58.60;33.67;;;7.80;99.90;;;;;;4926674;29;20412;-66
2022/03/30 05:45:56;;;;;;;61.05;37.97;;;7.80;99.90;;;;;;4942133;28;20138;-66
2022/03/30 05:48:24;;;;;;;58.33;37.17;;;7.80;99.90;;;;;;4937721;29;20463;-66
2022/03/30 05:50:52;;;;;;;59.00;36.85;;;7.80;99.90;;;;;;4943823;29;20043;-70
2022/03/30 05:53:19;;;;;;;109.88;69.72;;;7.80;99.90;;;;;;4957072;28;20066;-71
2022/03/30 05:55:46;;;;;;;82.75;45.50;;;7.80;99.90;;;;;;4943539;29;20332;-70
2022/03/30 05:58:14;;;;;;;68.28;39.67;;;7.90;99.90;;;;;;4934982;29;20435;-67
2022/03/30 06:00:41;;;;;;;66.32;37.63;;;7.90;99.90;;;;;;4948620;29;20065;-70
2022/03/30 06:03:10;;;;;;;56.97;35.47;;;7.90;99.90;;;;;;4943440;29;21657;-69
2022/03/30 06:05:37;;;;;;;70.05;39.67;;;7.90;99.90;;;;;;4937827;29;20122;-68
2022/03/30 06:08:05;;;;;;;55.22;34.97;;;7.90;99.90;;;;;;4935971;29;20055;-69
2022/03/30 06:10:32;;;;;;;97.93;66.20;;;7.90;99.90;;;;;;4932333;29;20055;-70
2022/03/30 06:12:59;;;;;;;95.32;61.45;;;7.80;99.90;;;;;;4945305;29;20051;-68
2022/03/30 06:15:27;;;;;;;64.32;37.83;;;7.90;99.90;;;;;;4953544;28;20059;-68
2022/03/30 06:17:55;;;;;;;54.40;36.35;;;7.90;99.90;;;;;;4951519;29;20066;-68
2022/03/30 06:20:22;;;;;;;62.67;38.20;;;7.90;99.90;;;;;;4938870;28;20066;-69
2022/03/30 06:22:51;;;;;;;66.18;36.13;;;7.90;99.90;;;;;;4940715;29;20077;-68
2022/03/30 06:25:22;;;;;;;64.40;37.33;;;7.90;99.90;;;;;;4936501;28;20054;-68
2022/03/30 06:27:49;;;;;;;64.55;36.45;;;7.80;99.90;;;;;;4928404;29;20150;-72
2022/03/30 06:30:16;;;;;;;57.22;35.17;;;7.80;99.90;;;;;;4919151;29;20466;-70
2022/03/30 06:32:46;;;;;;;61.33;36.67;;;7.90;99.90;;;;;;4949248;29;20510;-70
2022/03/30 06:35:13;;;;;;;61.72;36.17;;;7.90;99.90;;;;;;4948081;29;20487;-72
2022/03/30 06:37:40;;;;;;;61.55;37.85;;;7.90;99.90;;;;;;4951316;29;20058;-73
2022/03/30 06:40:08;;;;;;;59.38;36.13;;;7.90;99.90;;;;;;4958025;28;20051;-71
2022/03/30 06:42:37;;;;;;;56.65;35.53;;;7.90;99.90;;;;;;4928670;29;20075;-71
2022/03/30 06:45:06;;;;;;;57.28;35.22;;;7.90;99.90;;;;;;4949267;29;20070;-71
2022/03/30 06:47:34;;;;;;;;;;;7.90;99.90;;;;;;4952355;29;20058;-72
2022/03/30 06:50:00;;;;;;;58.20;33.45;;;7.90;99.90;;;;;;4941532;28;19990;-73
2022/03/30 06:52:28;;;;;;;64.93;36.30;;;7.90;99.90;;;;;;4950091;28;20135;-70
2022/03/30 06:54:55;;;;;;;61.38;37.67;;;7.90;99.90;;;;;;4956225;28;20047;-71
2022/03/30 06:57:22;;;;;;;59.67;35.88;;;8.00;99.90;;;;;;4950918;28;20058;-69
2022/03/30 06:59:49;;;;;;;62.55;35.30;;;7.90;99.90;;;;;;4950893;28;20051;-71
2022/03/30 07:02:16;;;;;;;62.33;35.08;;;7.90;99.90;;;;;;4957130;28;20074;-71
2022/03/30 07:04:43;;;;;;;60.00;35.13;;;7.90;99.90;;;;;;4950690;29;20058;-71
2022/03/30 07:10:15;;;;;;;56.25;36.03;;;8.00;99.90;;;;;;4961406;28;20051;-69
2022/03/30 07:12:43;;;;;;;;;;;7.90;99.90;;;;;;4934285;29;20055;-70
2022/03/30 07:15:16;;;;;;;60.22;34.92;;;7.90;99.90;;;;;;4943631;29;19935;-69
2022/03/30 07:17:44;;;;;;;58.53;34.33;;;7.90;99.90;;;;;;4948132;29;20480;-70
2022/03/30 07:20:12;;;;;;;61.85;39.75;;;7.90;99.90;;;;;;4951460;28;20525;-70
2022/03/30 07:22:39;;;;;;;84.30;54.03;;;8.00;99.90;;;;;;4948461;29;20061;-71
2022/03/30 07:25:07;;;;;;;73.22;40.28;;;8.00;99.90;;;;;;4947149;29;20063;-70
2022/03/30 07:27:33;;;;;;;63.45;37.10;;;8.00;99.90;;;;;;4947808;28;20534;-71
2022/03/30 07:30:01;;;;;;;67.50;39.42;;;8.00;99.90;;;;;;4936431;29;20051;-71
2022/03/30 07:32:28;;;;;;;59.97;37.15;;;8.00;99.90;;;;;;4948831;29;20055;-69
2022/03/30 07:34:55;;;;;;;63.78;36.75;;;8.00;99.90;;;;;;4949804;29;20043;-71
2022/03/30 07:37:23;;;;;;;63.70;35.60;;;8.10;99.90;;;;;;4962321;28;20055;-68
2022/03/30 07:39:50;;;;;;;67.45;37.38;;;8.10;99.90;;;;;;4979924;28;20438;-70
2022/03/30 07:42:17;;;;;;;62.33;35.42;;;8.10;99.90;;;;;;4951388;28;20059;-70
2022/03/30 07:44:44;;;;;;;65.90;38.85;;;8.10;99.90;;;;;;4951139;29;20054;-70
2022/03/30 07:47:11;;;;;;;65.63;36.25;;;8.10;99.90;;;;;;4951978;29;20403;-69
2022/03/30 07:49:38;;;;;;;65.35;38.22;;;8.10;99.90;;;;;;4949746;29;20522;-69
2022/03/30 07:52:05;;;;;;;60.58;37.85;;;8.10;99.90;;;;;;4950438;29;20067;-71
2022/03/30 07:54:32;;;;;;;70.57;35.33;;;8.20;99.90;;;;;;4950359;29;20170;-70
2022/03/30 07:56:59;;;;;;;63.90;37.13;;;8.20;99.90;;;;;;4950207;29;20058;-72
2022/03/30 07:59:26;;;;;;;69.95;37.80;;;8.20;99.90;;;;;;4949909;29;20067;-71
2022/03/30 08:01:54;;;;;;;64.38;39.22;;;8.10;99.90;;;;;;4951237;28;20051;-71
2022/03/30 08:04:22;;;;;;;68.03;38.80;;;8.10;99.90;;;;;;4919443;29;20069;-72
2022/03/30 08:06:50;;;;;;;59.42;34.58;;;8.10;99.90;;;;;;4956568;28;20138;-68
2022/03/30 08:09:17;;;;;;;60.17;33.72;;;8.10;99.90;;;;;;4958061;28;20430;-70
2022/03/30 08:11:44;;;;;;;67.28;34.42;;;8.10;99.90;;;;;;4953946;28;20059;-70
2022/03/30 08:14:12;;;;;;;62.83;35.13;;;8.10;99.90;;;;;;4942557;28;20415;-69
2022/03/30 08:16:39;;;;;;;72.75;37.80;;;8.10;99.90;;;;;;4931947;29;20051;-71
2022/03/30 08:19:06;;;;;;;69.68;36.70;;;8.10;99.90;;;;;;4943999;29;20047;-68
2022/03/30 08:24:20;;;;;;;62.63;34.65;;;8.10;99.90;;;;;;4944400;28;20047;-72
2022/03/30 08:26:48;;;;;;;70.13;39.10;;;8.10;99.90;;;;;;4933954;28;20058;-70
2022/03/30 08:29:16;;;;;;;125.30;82.22;;;8.10;99.90;;;;;;4920972;28;20086;-70
2022/03/30 08:31:51;;;;;;;80.45;45.45;;;8.10;99.90;;;;;;4966853;28;20047;-71
2022/03/30 08:34:19;;;;;;;70.18;40.60;;;8.30;99.90;;;;;;4956523;28;20167;-70
2022/03/30 08:36:46;;;;;;;66.15;37.80;;;8.40;99.90;;;;;;4906875;29;20051;-67
2022/03/30 08:39:13;;;;;;;72.35;39.70;;;8.50;99.90;;;;;;4946657;28;20047;-68
2022/03/30 08:41:44;;;;;;;66.22;39.75;;;8.60;99.90;;;;;;4948034;29;20047;-68
2022/03/30 08:44:14;;;;;;;71.20;37.47;;;8.70;99.90;;;;;;4947691;29;20051;-68
2022/03/30 08:46:42;;;;;;;84.10;41.42;;;8.70;99.90;;;;;;4935736;29;20138;-68
2022/03/30 08:49:09;;;;;;;69.78;39.13;;;8.60;99.90;;;;;;4951610;29;20055;-68
2022/03/30 08:51:38;;;;;;;76.20;40.30;;;8.70;99.90;;;;;;4951735;28;20063;-68
2022/03/30 08:54:05;;;;;;;71.37;39.70;;;8.80;99.90;;;;;;4956793;28;20063;-68
2022/03/30 08:56:32;;;;;;;72.75;37.10;;;8.90;99.90;;;;;;4954810;29;20395;-68
2022/03/30 08:59:11;;;;;;;67.55;37.72;;;9.10;99.90;;;;;;4970666;28;20448;-68
2022/03/30 09:01:39;;;;;;;71.68;37.97;;;9.10;99.90;;;;;;4954702;29;20043;-68
2022/03/30 09:04:12;;;;;;;77.18;39.30;;;9.20;99.90;;;;;;4923337;29;20055;-67
2022/03/30 09:06:39;;;;;;;63.88;38.03;;;9.20;99.90;;;;;;4945971;29;20083;-67
2022/03/30 09:09:07;;;;;;;70.32;38.60;;;9.20;99.90;;;;;;4955151;28;20141;-68
2022/03/30 09:11:55;;;;;;;67.18;38.92;;;9.30;99.90;;;;;;4962885;28;20061;-67
2022/03/30 09:14:25;;;;;;;74.32;40.38;;;9.30;99.90;;;;;;4958096;28;20058;-68
2022/03/30 09:16:54;;;;;;;71.22;37.83;;;9.40;99.90;;;;;;4958592;28;20060;-68
2022/03/30 09:19:22;;;;;;;58.20;38.50;;;9.40;99.90;;;;;;4959286;28;20048;-68
2022/03/30 09:22:00;;;;;;;64.50;38.20;;;9.40;99.90;;;;;;4956127;28;20055;-68
2022/03/30 09:24:29;;;;;;;70.73;40.47;;;9.50;99.90;;;;;;4957189;28;20482;-67
2022/03/30 09:26:57;;;;;;;61.78;36.17;;;9.50;99.90;;;;;;4940346;29;20061;-67
2022/03/30 09:29:26;;;;;;;61.35;39.97;;;9.50;99.90;;;;;;4956669;29;20077;-68
2022/03/30 09:32:13;;;;;;;61.90;35.55;;;9.40;99.90;;;;;;4939362;29;20047;-69
2022/03/30 09:34:51;;;;;;;153.27;115.68;;;9.40;99.90;;;;;;4940798;29;20055;-67
2022/03/30 09:37:18;;;;;;;81.32;51.30;;;9.40;99.90;;;;;;4951606;29;20077;-67
2022/03/30 09:39:46;;;;;;;65.53;40.20;;;9.50;99.90;;;;;;4955984;28;20043;-67
2022/03/30 09:42:14;;;;;;;61.35;38.92;;;9.50;99.90;;;;;;4953832;29;20055;-67
2022/03/30 09:44:48;;;;;;;61.28;36.85;;;9.50;99.90;;;;;;4953985;29;20048;-67
2022/03/30 09:47:16;;;;;;;61.75;36.53;;;9.70;99.90;;;;;;4954265;29;20138;-68
2022/03/30 09:49:43;;;;;;;57.28;37.20;;;9.80;99.90;;;;;;4954628;29;20102;-70
2022/03/30 09:52:11;;;;;;;62.10;39.00;;;9.90;99.90;;;;;;4954649;29;20055;-68
2022/03/30 09:54:53;;;;;;;61.78;37.28;;;9.90;99.90;;;;;;4954215;29;20061;-68
2022/03/30 09:57:27;;;;;;;56.42;35.13;;;10.00;99.90;;;;;;4954550;29;20062;-68
2022/03/30 10:00:15;;;;;;;65.95;37.40;;;10.10;99.90;;;;;;4954357;29;20059;-69
2022/03/30 10:02:43;;;;;;;67.25;46.78;;;10.20;99.90;;;;;;4953817;28;20126;-68
2022/03/30 10:05:12;;;;;;;65.38;41.03;;;10.30;99.90;;;;;;4938447;29;20059;-69
2022/03/30 10:07:39;;;;;;;57.13;36.60;;;10.40;99.90;;;;;;4954017;29;20058;-70
2022/03/30 10:10:08;;;;;;;57.75;39.08;;;10.50;99.90;;;;;;4945338;28;20478;-68
2022/03/30 10:12:36;;;;;;;55.58;34.90;;;10.60;99.90;;;;;;4954607;28;20079;-68
2022/03/30 10:15:08;;;;;;;57.80;34.80;;;10.50;99.90;;;;;;4953979;28;20098;-68
2022/03/30 10:17:36;;;;;;;58.95;38.60;;;10.80;99.90;;;;;;4953571;29;20055;-68
2022/03/30 10:20:04;;;;;;;58.38;35.60;;;11.00;99.90;;;;;;4938342;29;20051;-69
2022/03/30 10:22:44;;;;;;;54.35;36.75;;;11.00;99.90;;;;;;4954043;28;20057;-68
2022/03/30 10:25:32;;;;;;;58.65;37.08;;;11.00;99.90;;;;;;4954169;29;20051;-67
2022/03/30 10:28:21;;;;;;;59.05;38.42;;;11.20;99.90;;;;;;4953950;29;20150;-68
2022/03/30 10:30:56;;;;;;;57.13;34.25;;;11.20;99.90;;;;;;4953689;29;20047;-68
2022/03/30 10:33:30;;;;;;;63.80;38.20;;;11.30;99.90;;;;;;4953493;28;20086;-67
2022/03/30 10:35:59;;;;;;;66.18;39.90;;;11.40;99.90;;;;;;4955102;29;20090;-67
2022/03/30 10:38:26;;;;;;;54.90;37.47;;;11.40;99.90;;;;;;4921975;29;20043;-67
2022/03/30 10:41:08;;;;;;;63.22;37.15;;;11.50;99.90;;;;;;4938217;29;20447;-68
2022/03/30 10:43:35;;;;;;;55.22;36.88;;;11.60;99.90;;;;;;4937684;29;20051;-67
2022/03/30 10:46:02;;;;;;;52.00;35.05;;;11.60;99.90;;;;;;4922143;29;20077;-66
2022/03/30 10:48:29;;;;;;;65.20;38.95;;;11.60;99.90;;;;;;4953409;29;20326;-68
2022/03/30 10:51:13;;;;;;;59.72;37.20;;;11.70;99.90;;;;;;4954766;28;20106;-68
2022/03/30 10:53:46;;;;;;;55.95;34.80;;;11.70;99.90;;;;;;4945257;29;20062;-67
2022/03/30 10:56:21;;;;;;;56.65;37.83;;;11.70;99.90;;;;;;4941238;29;20130;-72
2022/03/30 10:59:00;;;;;;;63.72;43.53;;;11.80;99.90;;;;;;4935965;29;20052;-77
2022/03/30 11:01:31;;;;;;;64.60;37.83;;;11.90;99.90;;;;;;4944399;29;20047;-74
2022/03/30 11:04:11;;;;;;;55.13;35.92;;;12.10;99.90;;;;;;4949716;29;20094;-72
2022/03/30 11:06:44;;;;;;;61.20;37.42;;;12.20;99.90;;;;;;4949361;28;20047;-72
2022/03/30 11:09:28;;;;;;;56.28;38.17;;;12.20;99.90;;;;;;4947488;28;20056;-72
2022/03/30 11:12:05;;;;;;;52.33;36.67;;;12.30;99.90;;;;;;4941691;28;20062;-68
2022/03/30 11:14:36;;;;;;;54.28;36.08;;;12.30;99.90;;;;;;4956852;28;20055;-71
2022/03/30 11:17:24;;;;;;;52.95;36.85;;;12.40;99.90;;;;;;4955801;28;20047;-71
2022/03/30 11:19:58;;;;;;;58.55;38.67;;;12.50;99.90;;;;;;4947486;28;20047;-68
2022/03/30 11:22:32;;;;;;;49.95;35.97;;;12.50;99.90;;;;;;4949301;29;20054;-70
2022/03/30 11:25:23;;;;;;;54.63;33.67;;;12.40;99.90;;;;;;4960669;28;20043;-70
2022/03/30 11:28:01;;;;;;;67.95;44.50;;;12.40;99.90;;;;;;4948501;29;20496;-69
2022/03/30 11:30:31;;;;;;;97.75;71.75;;;12.40;99.90;;;;;;4934484;29;20060;-69
2022/03/30 11:33:17;;;;;;;64.95;44.15;;;12.30;99.90;;;;;;4945994;29;20507;-69
2022/03/30 11:35:46;;;;;;;93.20;69.10;;;12.30;99.90;;;;;;4953093;29;20138;-71
2022/03/30 11:38:24;;;;;;;55.13;38.92;;;12.30;99.90;;;;;;4936823;28;20051;-70
2022/03/30 11:41:44;;;;;;;56.67;37.60;;;12.40;99.90;;;;;;4949025;28;20562;-70
2022/03/30 11:46:58;;;;;;;58.55;38.55;;;12.40;99.90;;;;;;4953769;28;20059;-71
2022/03/30 11:49:25;;;;;;;61.88;36.55;;;12.50;99.90;;;;;;4933078;29;20048;-71
2022/03/30 11:51:54;;;;;;;50.00;34.85;;;12.60;99.90;;;;;;4949300;29;20381;-70
2022/03/30 11:54:21;;;;;;;55.28;37.30;;;12.50;99.90;;;;;;4933450;29;20055;-71
2022/03/30 11:56:51;;;;;;;50.00;35.92;;;12.50;99.70;;;;;;4948992;29;20099;-76
2022/03/30 11:59:18;;;;;;;;;;;12.60;99.90;;;;;;4944541;28;20513;-73
2022/03/30 12:01:45;;;;;;;45.40;33.55;;;12.80;99.90;;;;;;4960017;28;19961;-72
2022/03/30 12:04:15;;;;;;;47.95;33.90;;;12.80;98.10;;;;;;4957012;28;20058;-72
2022/03/30 12:06:48;;;;;;;53.17;35.40;;;12.80;98.50;;;;;;4952839;29;20126;-72
2022/03/30 12:09:18;;;;;;;54.53;36.55;;;12.90;99.90;;;;;;4969029;28;20502;-72
2022/03/30 12:11:46;;;;;;;46.45;33.83;;;13.00;99.90;;;;;;4971533;28;20483;-72
2022/03/30 12:14:13;;;;;;;47.03;33.28;;;13.20;99.90;;;;;;4938879;29;20353;-71
2022/03/30 12:16:41;;;;;;;92.47;69.15;;;13.20;93.50;;;;;;4952164;29;20123;-71
2022/03/30 12:19:08;;;;;;;54.22;40.00;;;13.30;93.10;;;;;;4953685;29;20506;-73
2022/03/30 12:21:38;;;;;;;43.22;32.42;;;13.40;96.00;;;;;;4969900;28;20054;-73
2022/03/30 12:24:16;;;;;;;47.88;32.10;;;13.50;93.50;;;;;;4971881;28;20509;-73
2022/03/30 12:26:50;;;;;;;45.33;31.90;;;13.50;94.60;;;;;;4945026;28;20134;-73
2022/03/30 12:32:58;;;;;;;44.25;34.35;;;13.70;93.00;;;;;;4977106;28;20109;-74
2022/03/30 12:35:30;;;;;;;52.15;35.58;;;13.70;93.50;;;;;;4958974;28;20066;-73
2022/03/30 12:38:08;;;;;;;49.60;34.20;;;13.70;94.60;;;;;;4943481;28;20252;-73
2022/03/30 12:40:36;;;;;;;50.30;35.05;;;13.60;94.20;;;;;;4943335;28;20145;-73
2022/03/30 12:43:03;;;;;;;53.78;34.72;;;13.50;96.30;;;;;;4968186;28;20043;-73
2022/03/30 12:45:31;;;;;;;51.22;34.63;;;13.30;95.90;;;;;;4955154;29;20142;-73
2022/03/30 12:48:01;;;;;;;71.35;51.88;;;13.10;96.70;;;;;;4939441;29;20138;-73
2022/03/30 12:50:33;;;;;;;55.85;39.35;;;13.00;98.00;;;;;;4955414;29;20083;-74
2022/03/30 12:53:17;;;;;;;50.15;36.55;;;13.10;99.90;;;;;;4930530;28;20047;-74
2022/03/30 12:55:46;;;;;;;53.53;35.05;;;13.00;98.40;;;;;;4945049;28;20046;-74
2022/03/30 12:58:16;;;;;;;53.92;34.90;;;13.00;99.20;;;;;;4974153;28;20058;-75
2022/03/30 13:00:44;;;;;;;57.15;36.80;;;12.90;98.70;;;;;;4958246;28;20062;-74